createdAt,value
2023-05-19T00:01:22.158Z,1.63
2023-05-19T00:04:24.840Z,1.88
2023-05-19T00:07:31.094Z,2.63
2023-05-19T00:10:33.917Z,3.07
2023-05-19T00:13:36.899Z,1.60
2023-05-19T00:16:39.749Z,1.33
2023-05-19T00:19:42.474Z,1.50
2023-05-19T00:22:44.981Z,1.77
2023-05-19T00:25:47.448Z,1.65
2023-05-19T00:28:50.950Z,2.47
2023-05-19T00:31:53.420Z,1.60
2023-05-19T00:34:55.929Z,1.90
2023-05-19T00:37:58.403Z,1.92
2023-05-19T00:41:02.111Z,1.70
2023-05-19T00:44:04.835Z,1.73
2023-05-19T00:47:08.325Z,1.55
2023-05-19T00:50:10.999Z,1.67
2023-05-19T00:53:14.978Z,1.85
2023-05-19T00:56:18.394Z,1.70
2023-05-19T00:59:21.098Z,1.63
2023-05-19T01:02:24.080Z,1.70
2023-05-19T01:05:26.889Z,3.15
2023-05-19T01:08:31.688Z,2.53
2023-05-19T01:11:34.122Z,1.20
2023-05-19T01:14:36.611Z,2.55
2023-05-19T01:17:54.794Z,3.33
2023-05-19T01:21:44.493Z,2.47
2023-05-19T01:24:54.844Z,1.58
2023-05-19T01:28:02.890Z,2.78
2023-05-19T01:31:07.475Z,1.95
2023-05-19T01:34:13.116Z,1.67
2023-05-19T01:37:17.738Z,1.15
2023-05-19T01:40:23.869Z,1.33
2023-05-19T01:43:27.153Z,2.87
2023-05-19T01:46:29.669Z,1.15
2023-05-19T01:49:32.192Z,1.40
2023-05-19T01:52:34.621Z,1.30
2023-05-19T01:55:44.839Z,2.33
2023-05-19T01:58:53.101Z,1.90
2023-05-19T02:02:00.530Z,2.17
2023-05-19T02:05:18.649Z,1.30
2023-05-19T02:08:25.949Z,2.33
2023-05-19T02:11:40.035Z,1.00
2023-05-19T02:14:49.702Z,1.43
2023-05-19T02:17:55.654Z,1.85
2023-05-19T02:20:58.290Z,1.77
2023-05-19T02:24:00.872Z,1.50
2023-05-19T02:27:03.874Z,1.30
2023-05-19T02:30:08.307Z,1.95
2023-05-19T02:33:12.512Z,1.65
2023-05-19T02:36:15.136Z,2.00
2023-05-19T02:39:17.827Z,1.70
2023-05-19T02:42:20.960Z,1.33
2023-05-19T02:45:23.913Z,2.03
2023-05-19T02:48:26.379Z,1.80
2023-05-19T02:51:28.794Z,1.67
2023-05-19T02:54:31.796Z,2.42
2023-05-19T02:57:35.036Z,1.40
2023-05-19T03:00:37.514Z,1.67
2023-05-19T03:03:40.042Z,2.28
2023-05-19T03:06:42.578Z,1.80
2023-05-19T03:09:45.003Z,1.55
2023-05-19T03:12:47.378Z,1.77
2023-05-19T03:15:51.210Z,1.60
2023-05-19T03:18:53.877Z,3.47
2023-05-19T03:21:56.571Z,1.55
2023-05-19T03:24:59.129Z,1.85
2023-05-19T03:28:01.744Z,2.10
2023-05-19T03:31:04.294Z,1.88
2023-05-19T03:34:11.900Z,1.63
2023-05-19T03:37:14.384Z,2.07
2023-05-19T03:40:18.924Z,2.75
2023-05-19T03:43:21.623Z,1.70
2023-05-19T03:46:29.740Z,1.53
2023-05-19T03:49:46.012Z,2.00
2023-05-19T03:53:07.286Z,1.75
2023-05-19T03:56:18.135Z,1.75
2023-05-19T03:59:20.646Z,1.58
2023-05-19T04:02:23.095Z,1.77
2023-05-19T04:05:25.791Z,3.63
2023-05-19T04:08:29.436Z,2.17
2023-05-19T04:11:32.023Z,1.85
2023-05-19T04:14:34.449Z,2.30
2023-05-19T04:17:37.143Z,1.60
2023-05-19T04:20:39.593Z,3.58
2023-05-19T04:23:42.154Z,3.53
2023-05-19T04:26:47.095Z,2.90
2023-05-19T04:29:51.245Z,1.77
2023-05-19T04:32:53.797Z,2.88
2023-05-19T04:35:56.840Z,2.97
2023-05-19T04:39:02.767Z,1.90
2023-05-19T04:42:06.470Z,2.22
2023-05-19T04:45:10.452Z,2.75
2023-05-19T04:48:15.955Z,2.30
2023-05-19T04:51:18.375Z,2.60
2023-05-19T04:54:21.389Z,3.47
2023-05-19T04:57:23.919Z,2.72
2023-05-19T05:00:26.771Z,2.47
2023-05-19T05:03:35.458Z,2.28
2023-05-19T05:06:42.520Z,4.45
2023-05-19T05:09:45.576Z,2.10
2023-05-19T05:12:48.336Z,6.82
2023-05-19T05:15:54.578Z,3.17
2023-05-19T05:18:57.867Z,1.50
2023-05-19T05:22:01.006Z,2.30
2023-05-19T05:25:04.287Z,1.75
2023-05-19T05:28:06.808Z,3.80
2023-05-19T05:31:11.753Z,4.43
2023-05-19T05:34:17.681Z,1.77
2023-05-19T05:37:20.509Z,3.60
2023-05-19T05:40:22.992Z,3.13
2023-05-19T05:43:25.853Z,2.38
2023-05-19T05:46:33.569Z,3.78
2023-05-19T05:49:38.154Z,1.90
2023-05-19T05:52:42.572Z,1.75
2023-05-19T05:55:47.206Z,3.50
2023-05-19T05:58:50.747Z,3.00
2023-05-19T06:01:53.270Z,3.13
2023-05-19T06:04:56.280Z,2.47
2023-05-19T06:07:58.868Z,1.75
2023-05-19T06:11:08.456Z,1.57
2023-05-19T06:14:11.837Z,3.13
2023-05-19T06:17:37.418Z,1.55
2023-05-19T06:20:39.899Z,2.47
2023-05-19T06:23:42.458Z,1.90
2023-05-19T06:26:46.390Z,1.90
2023-05-19T06:29:48.884Z,5.30
2023-05-19T06:32:51.354Z,10.95
2023-05-19T06:35:53.903Z,3.95
2023-05-19T06:38:57.664Z,9.20
2023-05-19T06:42:00.890Z,4.50
2023-05-19T06:45:23.947Z,3.05
2023-05-19T06:48:27.575Z,1.98
2023-05-19T06:51:30.088Z,2.33
2023-05-19T06:54:32.739Z,3.00
2023-05-19T06:57:36.249Z,2.28
2023-05-19T07:00:39.373Z,3.55
2023-05-19T07:03:44.163Z,2.35
2023-05-19T07:06:50.251Z,2.63
2023-05-19T07:09:53.188Z,5.65
2023-05-19T07:12:58.213Z,5.50
2023-05-19T07:16:04.172Z,3.75
2023-05-19T07:19:06.771Z,6.65
2023-05-19T07:22:09.328Z,3.80
2023-05-19T07:25:11.796Z,1.75
2023-05-19T07:28:15.025Z,7.10
2023-05-19T07:31:17.624Z,4.45
2023-05-19T07:34:20.900Z,2.35
2023-05-19T07:37:23.367Z,6.00
2023-05-19T07:40:25.783Z,9.95
2023-05-19T07:43:28.281Z,2.47
2023-05-19T07:46:30.800Z,3.95
2023-05-19T07:49:33.291Z,3.17
2023-05-19T07:52:35.933Z,2.93
2023-05-19T07:55:38.329Z,3.33
2023-05-19T07:58:40.846Z,3.20
2023-05-19T08:01:43.365Z,2.33
2023-05-19T08:04:45.912Z,2.28
2023-05-19T08:07:48.463Z,2.45
2023-05-19T08:10:50.998Z,2.17
2023-05-19T08:13:53.606Z,2.23
2023-05-19T08:16:56.369Z,3.75
2023-05-19T08:20:00.387Z,2.58
2023-05-19T08:23:02.849Z,2.53
2023-05-19T08:26:05.690Z,2.33
2023-05-19T08:29:08.165Z,3.03
2023-05-19T08:32:13.045Z,2.33
2023-05-19T08:35:15.940Z,2.67
2023-05-19T08:38:18.442Z,6.35
2023-05-19T08:41:21.787Z,5.60
2023-05-19T08:44:24.189Z,3.10
2023-05-19T08:47:27.970Z,2.88
2023-05-19T08:50:36.445Z,3.00
2023-05-19T08:53:44.064Z,2.77
2023-05-19T08:56:47.302Z,3.83
2023-05-19T08:59:54.349Z,3.15
2023-05-19T09:03:05.982Z,4.63
2023-05-19T09:06:19.771Z,3.78
2023-05-19T09:09:22.289Z,3.33
2023-05-19T09:12:24.741Z,4.47
2023-05-19T09:15:28.422Z,4.10
2023-05-19T09:18:31.503Z,4.30
2023-05-19T09:21:34.055Z,3.63
2023-05-19T09:24:37.935Z,3.03
2023-05-19T09:27:40.366Z,2.90
2023-05-19T09:30:42.766Z,3.20
2023-05-19T09:33:46.281Z,3.28
2023-05-19T09:36:53.439Z,3.90
2023-05-19T09:39:56.602Z,3.25
2023-05-19T09:42:59.052Z,3.70
2023-05-19T09:46:09.604Z,5.90
2023-05-19T09:49:14.351Z,5.35
2023-05-19T09:52:16.797Z,2.92
2023-05-19T09:55:23.265Z,3.17
2023-05-19T09:58:27.100Z,2.90
2023-05-19T10:01:33.697Z,4.15
2023-05-19T10:04:36.661Z,4.25
2023-05-19T10:07:40.583Z,2.72
2023-05-19T10:10:43.371Z,10.20
2023-05-19T10:13:47.205Z,4.10
2023-05-19T10:16:52.448Z,2.60
2023-05-19T10:19:55.214Z,4.15
2023-05-19T10:22:57.638Z,3.22
2023-05-19T10:26:04.159Z,3.27
2023-05-19T10:29:06.957Z,2.60
2023-05-19T10:32:17.581Z,3.85
2023-05-19T10:35:22.615Z,3.17
2023-05-19T10:38:43.119Z,4.20
2023-05-19T10:42:07.143Z,3.60
2023-05-19T10:45:16.328Z,3.05
2023-05-19T10:48:23.085Z,3.20
2023-05-19T10:51:32.185Z,4.10
2023-05-19T10:54:43.452Z,3.33
2023-05-19T10:57:58.577Z,4.63
2023-05-19T11:01:01.582Z,4.75
2023-05-19T11:04:06.318Z,4.65
2023-05-19T11:07:10.534Z,3.40
2023-05-19T11:10:13.331Z,4.50
2023-05-19T11:13:22.705Z,4.88
2023-05-19T11:16:28.657Z,3.55
2023-05-19T11:19:34.478Z,5.47
2023-05-19T11:22:37.205Z,3.95
2023-05-19T11:25:47.093Z,5.93
2023-05-19T11:28:49.761Z,6.13
2023-05-19T11:31:52.311Z,4.32
2023-05-19T11:34:56.087Z,3.40
2023-05-19T11:37:59.113Z,4.00
2023-05-19T11:41:01.595Z,4.27
2023-05-19T11:44:04.058Z,3.80
2023-05-19T11:47:06.744Z,4.43
2023-05-19T11:50:11.433Z,3.60
2023-05-19T11:53:14.831Z,4.88
2023-05-19T11:56:17.240Z,3.35
2023-05-19T11:59:34.829Z,4.13
2023-05-19T12:02:38.189Z,4.80
2023-05-19T12:05:46.006Z,4.32
2023-05-19T12:08:51.963Z,4.13
2023-05-19T12:11:55.186Z,4.57
2023-05-19T12:14:57.722Z,3.30
2023-05-19T12:18:02.014Z,3.67
2023-05-19T12:21:05.115Z,3.73
2023-05-19T12:24:07.736Z,3.90
2023-05-19T12:27:14.277Z,4.65
2023-05-19T12:30:17.056Z,5.00
2023-05-19T12:33:22.951Z,4.15
2023-05-19T12:36:25.494Z,4.60
2023-05-19T12:39:28.941Z,4.70
2023-05-19T12:42:31.666Z,5.50
2023-05-19T12:45:35.480Z,4.38
2023-05-19T12:48:43.277Z,4.30
2023-05-19T12:51:52.476Z,4.27
2023-05-19T12:55:07.196Z,4.13
2023-05-19T12:58:11.574Z,3.22
2023-05-19T13:01:18.793Z,5.07
2023-05-19T13:04:21.332Z,7.22
2023-05-19T13:07:24.452Z,3.75
2023-05-19T13:10:27.841Z,5.72
2023-05-19T13:13:30.242Z,5.37
2023-05-19T13:16:32.651Z,4.78
2023-05-19T13:19:35.128Z,4.85
2023-05-19T13:22:37.944Z,5.83
2023-05-19T13:25:41.405Z,4.13
2023-05-19T13:28:43.886Z,3.72
2023-05-19T13:31:46.379Z,8.27
2023-05-19T13:34:48.997Z,3.95
2023-05-19T13:37:51.390Z,4.35
2023-05-19T13:40:53.883Z,5.90
2023-05-19T13:43:59.787Z,10.60
2023-05-19T13:47:02.331Z,4.20
2023-05-19T13:50:05.774Z,3.47
2023-05-19T13:53:08.495Z,4.57
2023-05-19T13:56:10.977Z,5.50
2023-05-19T13:59:13.611Z,4.60
2023-05-19T14:02:16.288Z,5.97
2023-05-19T14:05:18.834Z,6.95
2023-05-19T14:08:22.139Z,3.80
2023-05-19T14:11:24.658Z,4.90
2023-05-19T14:14:27.193Z,3.60
2023-05-19T14:17:29.647Z,3.75
2023-05-19T14:20:32.351Z,3.88
2023-05-19T14:23:34.900Z,5.47
2023-05-19T14:26:37.267Z,5.70
2023-05-19T14:29:39.744Z,6.20
2023-05-19T14:32:42.225Z,5.70
2023-05-19T14:35:44.756Z,11.32
2023-05-19T14:38:47.186Z,4.03
2023-05-19T14:41:51.045Z,5.70
2023-05-19T14:44:53.498Z,4.10
2023-05-19T14:47:56.043Z,5.05
2023-05-19T14:50:58.468Z,4.50
2023-05-19T14:54:02.310Z,4.40
2023-05-19T14:57:07.295Z,9.43
2023-05-19T15:00:10.437Z,4.97
2023-05-19T15:03:14.789Z,5.00
2023-05-19T15:06:17.447Z,5.60
2023-05-19T15:09:19.871Z,4.13
2023-05-19T15:12:22.407Z,5.07
2023-05-19T15:15:24.831Z,4.17
2023-05-19T15:18:27.250Z,6.00
2023-05-19T15:21:29.701Z,5.72
2023-05-19T15:24:32.121Z,4.30
2023-05-19T15:27:36.349Z,6.03
2023-05-19T15:30:38.803Z,6.30
2023-05-19T15:33:41.388Z,6.22
2023-05-19T15:36:43.921Z,6.72
2023-05-19T15:39:46.376Z,4.43
2023-05-19T15:42:48.784Z,4.82
2023-05-19T15:45:54.863Z,4.30
2023-05-19T15:48:57.276Z,4.85
2023-05-19T15:51:59.652Z,6.07
2023-05-19T15:55:02.092Z,4.93
2023-05-19T15:58:04.579Z,7.05
2023-05-19T16:01:07.441Z,4.47
2023-05-19T16:04:09.911Z,6.03
2023-05-19T16:07:12.300Z,5.65
2023-05-19T16:10:14.860Z,5.72
2023-05-19T16:13:17.304Z,6.35
2023-05-19T16:16:19.823Z,5.77
2023-05-19T16:19:23.854Z,8.48
2023-05-19T16:22:27.217Z,8.68
2023-05-19T16:25:29.789Z,8.67
2023-05-19T16:28:32.569Z,8.38
2023-05-19T16:31:35.016Z,9.75
2023-05-19T16:34:37.472Z,10.00
2023-05-19T16:37:40.198Z,10.55
2023-05-19T16:40:42.613Z,10.57
2023-05-19T16:43:45.026Z,9.75
2023-05-19T16:46:47.455Z,11.33
2023-05-19T16:49:49.834Z,9.63
2023-05-19T16:52:52.202Z,10.23
2023-05-19T16:55:54.693Z,9.37
2023-05-19T16:58:57.137Z,9.60
2023-05-19T17:01:59.615Z,9.90
2023-05-19T17:05:02.046Z,16.25
2023-05-19T17:08:05.741Z,8.52
2023-05-19T17:11:08.293Z,12.07
2023-05-19T17:14:11.078Z,11.80
2023-05-19T17:17:13.519Z,7.10
2023-05-19T17:20:16.290Z,8.25
2023-05-19T17:23:18.697Z,15.65
2023-05-19T17:26:22.167Z,15.13
2023-05-19T17:29:24.809Z,8.32
2023-05-19T17:32:29.111Z,18.10
2023-05-19T17:35:33.413Z,7.18
2023-05-19T17:38:40.113Z,9.98
2023-05-19T17:41:43.693Z,7.90
2023-05-19T17:44:46.173Z,8.18
2023-05-19T17:47:48.673Z,16.37
2023-05-19T17:50:51.122Z,22.25
2023-05-19T17:53:53.933Z,17.95
2023-05-19T17:56:58.582Z,7.77
2023-05-19T18:00:01.553Z,6.78
2023-05-19T18:03:06.247Z,7.40
2023-05-19T18:06:09.190Z,7.60
2023-05-19T18:09:14.334Z,10.77
2023-05-19T18:12:17.575Z,7.45
2023-05-19T18:15:19.984Z,8.00
2023-05-19T18:18:22.442Z,9.73
2023-05-19T18:21:25.303Z,8.38
2023-05-19T18:24:27.775Z,7.15
2023-05-19T18:27:31.409Z,6.63
2023-05-19T18:30:34.037Z,7.38
2023-05-19T18:33:36.711Z,7.50
2023-05-19T18:36:39.075Z,5.97
2023-05-19T18:39:41.453Z,7.85
2023-05-19T18:42:43.951Z,5.75
2023-05-19T18:45:49.310Z,7.15
2023-05-19T18:48:51.741Z,5.93
2023-05-19T18:51:54.204Z,7.10
2023-05-19T18:54:56.710Z,6.60
2023-05-19T18:57:59.240Z,6.47
2023-05-19T19:01:01.715Z,8.05
2023-05-19T19:04:04.340Z,6.28
2023-05-19T19:07:06.857Z,7.18
2023-05-19T19:10:09.617Z,7.15
2023-05-19T19:13:12.074Z,8.68
2023-05-19T19:16:14.538Z,8.32
2023-05-19T19:19:17.018Z,5.97
2023-05-19T19:22:19.490Z,8.70
2023-05-19T19:25:23.534Z,12.65
2023-05-19T19:28:26.557Z,8.77
2023-05-19T19:31:29.103Z,12.70
2023-05-19T19:34:31.735Z,10.60
2023-05-19T19:37:34.106Z,9.23
2023-05-19T19:40:36.805Z,11.63
2023-05-19T19:43:39.374Z,8.80
2023-05-19T19:46:41.808Z,9.00
2023-05-19T19:49:45.842Z,10.13
2023-05-19T19:52:48.293Z,7.53
2023-05-19T19:55:57.648Z,8.05
2023-05-19T19:59:00.283Z,8.90
2023-05-19T20:02:02.849Z,8.63
2023-05-19T20:05:05.839Z,8.60
2023-05-19T20:08:08.650Z,7.68
2023-05-19T20:11:11.132Z,7.55
2023-05-19T20:14:13.515Z,7.43
2023-05-19T20:17:16.030Z,7.95
2023-05-19T20:20:18.440Z,6.63
2023-05-19T20:23:21.330Z,9.93
2023-05-19T20:26:24.374Z,7.63
2023-05-19T20:29:27.329Z,9.00
2023-05-19T20:32:29.742Z,9.23
2023-05-19T20:35:32.363Z,10.50
2023-05-19T20:38:34.998Z,9.57
2023-05-19T20:41:37.492Z,8.77
2023-05-19T20:44:39.865Z,8.23
2023-05-19T20:47:42.259Z,9.02
2023-05-19T20:50:44.745Z,6.87
2023-05-19T20:53:47.201Z,7.07
2023-05-19T20:56:51.087Z,11.05
2023-05-19T20:59:53.561Z,8.23
2023-05-19T21:02:56.046Z,9.57
2023-05-19T21:05:58.507Z,8.18
2023-05-19T21:09:03.807Z,8.75
2023-05-19T21:12:06.338Z,8.45
2023-05-19T21:15:09.870Z,9.48
2023-05-19T21:18:12.835Z,9.93
2023-05-19T21:21:15.396Z,8.50
2023-05-19T21:24:17.875Z,9.07
2023-05-19T21:27:20.385Z,9.38
2023-05-19T21:30:23.639Z,8.27
2023-05-19T21:33:26.019Z,9.98
2023-05-19T21:36:28.445Z,13.38
2023-05-19T21:39:30.821Z,8.18
2023-05-19T21:42:33.183Z,11.95
2023-05-19T21:45:35.616Z,8.93
2023-05-19T21:48:38.077Z,10.90
2023-05-19T21:51:40.582Z,8.20
2023-05-19T21:54:43.148Z,11.27
2023-05-19T21:57:45.546Z,8.80
2023-05-19T22:00:50.008Z,12.47
2023-05-19T22:03:53.077Z,10.27
2023-05-19T22:06:55.507Z,9.80
2023-05-19T22:09:57.855Z,11.02
2023-05-19T22:13:00.274Z,10.15
2023-05-19T22:16:04.673Z,10.85
2023-05-19T22:19:07.368Z,11.07
2023-05-19T22:22:14.419Z,11.27
2023-05-19T22:25:17.149Z,10.88
2023-05-19T22:28:19.531Z,9.70
2023-05-19T22:31:21.952Z,11.17
2023-05-19T22:34:24.390Z,21.33
2023-05-19T22:37:28.889Z,14.63
2023-05-19T22:40:32.544Z,12.35
2023-05-19T22:43:35.202Z,12.18
2023-05-19T22:46:37.684Z,10.75
2023-05-19T22:49:41.277Z,11.27
2023-05-19T22:52:43.727Z,11.53
2023-05-19T22:55:46.228Z,10.80
2023-05-19T22:58:48.642Z,9.88
2023-05-19T23:01:51.134Z,11.50
2023-05-19T23:04:53.622Z,10.80
2023-05-19T23:07:56.173Z,12.88
2023-05-19T23:11:02.280Z,10.43
2023-05-19T23:14:04.764Z,10.70
2023-05-19T23:17:07.390Z,13.70
2023-05-19T23:20:10.640Z,12.40
2023-05-19T23:23:13.223Z,9.70
2023-05-19T23:26:15.655Z,14.25
2023-05-19T23:29:18.136Z,12.63
2023-05-19T23:32:20.537Z,11.83
2023-05-19T23:35:22.906Z,13.57
2023-05-19T23:38:25.740Z,11.23
2023-05-19T23:41:28.198Z,11.40
2023-05-19T23:44:30.705Z,10.75
2023-05-19T23:47:33.089Z,10.45
2023-05-19T23:50:35.723Z,13.90
2023-05-19T23:53:38.228Z,11.50
2023-05-19T23:56:40.786Z,11.63
2023-05-19T23:59:43.179Z,12.60
